Time;durP1;ratioP1;P1;durP2;ratioP2;P2;SDS_P1;SDS_P2;PMS_P1;PMS_P2;Temp;Humidity;BMP_temperature;BMP_pressure;BME280_temperature;BME280_humidity;BME280_pressure;Samples;Min_cycle;Max_cycle;Signal;HPM_P1;HPM_P2
2022/02/17 00:02:22;;;;;;;22.02;6.20;;;;;;;;;;5086715;28;20078;-66
2022/02/17 00:04:48;;;;;;;24.40;3.90;;;;;;;;;;5104832;28;20050;-66
2022/02/17 00:07:14;;;;;;;16.52;3.40;;;;;;;;;;5104521;28;20091;-66
2022/02/17 00:09:40;;;;;;;23.52;5.78;;;;;;;;;;5096294;28;20044;-66
2022/02/17 00:12:06;;;;;;;15.57;4.03;;;;;;;;;;5083005;28;20053;-66
2022/02/17 00:14:33;;;;;;;18.92;5.07;;;;;;;;;;5084210;28;20071;-66
2022/02/17 00:16:59;;;;;;;23.17;5.28;;;;;;;;;;5084169;28;20064;-66
2022/02/17 00:19:25;;;;;;;19.50;3.78;;;;;;;;;;5084241;28;20263;-66
2022/02/17 00:21:51;;;;;;;21.83;3.88;;;;;;;;;;5083881;28;20058;-65
2022/02/17 00:24:18;;;;;;;22.58;4.60;;;;;;;;;;5083182;28;20052;-64
2022/02/17 00:26:44;;;;;;;21.67;4.45;;;;;;;;;;5083984;28;20045;-65
2022/02/17 00:29:11;;;;;;;24.88;4.68;;;;;;;;;;5087603;28;20036;-65
2022/02/17 00:31:37;;;;;;;27.83;4.43;;;;;;;;;;5103164;28;20334;-65
2022/02/17 00:34:04;;;;;;;22.80;6.50;;;;;;;;;;5103545;28;20119;-64
2022/02/17 00:36:30;;;;;;;25.67;6.37;;;;;;;;;;5104393;28;20047;-64
2022/02/17 00:38:57;;;;;;;21.95;6.25;;;;;;;;;;5102661;28;20054;-64
2022/02/17 00:41:23;;;;;;;34.25;4.97;;;;;;;;;;5104164;28;20052;-65
2022/02/17 00:43:49;;;;;;;22.75;5.10;;;;;;;;;;5102974;28;20468;-65
2022/02/17 00:46:15;;;;;;;24.25;4.68;;;;;;;;;;5102640;28;20067;-66
2022/02/17 00:48:41;;;;;;;21.70;5.10;;;;;;;;;;5102387;28;20431;-65
2022/02/17 00:51:07;;;;;;;21.27;5.72;;;;;;;;;;5083509;28;20132;-65
2022/02/17 00:53:34;;;;;;;31.58;5.03;;;;;;;;;;5082907;28;20055;-65
2022/02/17 00:56:00;;;;;;;17.85;4.68;;;;;;;;;;5082829;28;20519;-66
2022/02/17 00:58:26;;;;;;;23.23;4.30;;;;;;;;;;5083923;28;20052;-66
2022/02/17 01:00:52;;;;;;;12.68;4.05;;;;;;;;;;5101799;28;20095;-66
2022/02/17 01:03:18;;;;;;;26.55;5.47;;;;;;;;;;5104461;28;20503;-66
2022/02/17 01:05:44;;;;;;;16.02;3.47;;;;;;;;;;5104126;28;20147;-66
2022/02/17 01:08:10;;;;;;;11.35;3.55;;;;;;;;;;5103764;28;20053;-66
2022/02/17 01:10:37;;;;;;;14.45;3.10;;;;;;;;;;5086528;28;20502;-66
2022/02/17 01:13:03;;;;;;;17.17;3.45;;;;;;;;;;5082287;28;20436;-66
2022/02/17 01:15:30;;;;;;;19.55;4.03;;;;;;;;;;5083737;28;20094;-65
2022/02/17 01:17:56;;;;;;;14.10;3.92;;;;;;;;;;5082700;28;20467;-66
2022/02/17 01:20:22;;;;;;;17.27;3.47;;;;;;;;;;5075805;28;20165;-65
2022/02/17 01:22:49;;;;;;;20.27;4.93;;;;;;;;;;5061897;28;20087;-66
2022/02/17 01:25:15;;;;;;;18.98;3.35;;;;;;;;;;5063460;28;20313;-66
2022/02/17 01:27:42;;;;;;;14.40;4.22;;;;;;;;;;5062428;28;20053;-66
2022/02/17 01:30:08;;;;;;;22.73;5.53;;;;;;;;;;5087665;28;20122;-66
2022/02/17 01:32:35;;;;;;;17.48;3.78;;;;;;;;;;5103886;28;20044;-65
2022/02/17 01:35:01;;;;;;;18.02;4.70;;;;;;;;;;5103938;28;20047;-65
2022/02/17 01:37:27;;;;;;;18.65;4.47;;;;;;;;;;5100121;28;20048;-65
2022/02/17 01:39:53;;;;;;;20.35;4.97;;;;;;;;;;5102804;28;20047;-65
2022/02/17 01:42:19;;;;;;;14.75;4.07;;;;;;;;;;5102622;28;20040;-66
2022/02/17 01:44:46;;;;;;;16.50;4.68;;;;;;;;;;5103263;28;20521;-65
2022/02/17 01:47:13;;;;;;;17.45;4.28;;;;;;;;;;5106465;28;20056;-64
2022/02/17 01:49:40;;;;;;;19.98;5.43;;;;;;;;;;5085971;28;20055;-65
2022/02/17 01:52:07;;;;;;;30.42;6.28;;;;;;;;;;5085224;28;20052;-65
2022/02/17 01:54:33;;;;;;;26.30;5.20;;;;;;;;;;5086914;28;20115;-65
2022/02/17 01:57:00;;;;;;;26.58;4.97;;;;;;;;;;5086986;28;20118;-66
2022/02/17 01:59:26;;;;;;;25.10;5.13;;;;;;;;;;5088825;28;20123;-65
2022/02/17 02:01:52;;;;;;;35.20;6.68;;;;;;;;;;5107245;28;20099;-65
2022/02/17 02:04:18;;;;;;;24.00;6.38;;;;;;;;;;5105824;28;20040;-65
2022/02/17 02:06:44;;;;;;;19.48;4.80;;;;;;;;;;5106593;28;20048;-65
2022/02/17 02:09:11;;;;;;;26.38;5.20;;;;;;;;;;5086912;28;20070;-66
2022/02/17 02:11:37;;;;;;;24.10;6.07;;;;;;;;;;5086665;28;20161;-66
2022/02/17 02:14:03;;;;;;;26.90;4.82;;;;;;;;;;5092392;28;20047;-66
2022/02/17 02:16:29;;;;;;;32.17;5.63;;;;;;;;;;5106818;28;20118;-65
2022/02/17 02:18:55;;;;;;;19.70;4.90;;;;;;;;;;5101614;28;20040;-65
2022/02/17 02:21:23;;;;;;;14.43;3.58;;;;;;;;;;5084801;28;20052;-65
2022/02/17 02:23:49;;;;;;;13.98;4.85;;;;;;;;;;5085157;28;20052;-66
2022/02/17 02:26:16;;;;;;;23.67;5.07;;;;;;;;;;5085306;28;20053;-66
2022/02/17 02:28:42;;;;;;;20.98;5.03;;;;;;;;;;5089437;28;20552;-64
2022/02/17 02:31:08;;;;;;;15.88;4.05;;;;;;;;;;5105100;28;20044;-64
2022/02/17 02:33:34;;;;;;;21.20;5.68;;;;;;;;;;5106641;28;20103;-64
2022/02/17 02:36:01;;;;;;;22.90;5.82;;;;;;;;;;5104669;28;20054;-64
2022/02/17 02:38:27;;;;;;;35.40;6.33;;;;;;;;;;5103342;28;20047;-64
2022/02/17 02:40:55;;;;;;;28.58;4.90;;;;;;;;;;5106605;28;20044;-65
2022/02/17 02:43:21;;;;;;;;;;;;;;;;;;5097539;28;20078;-65
2022/02/17 02:45:47;;;;;;;22.92;6.57;;;;;;;;;;5118587;28;20023;-64
2022/02/17 02:48:15;;;;;;;28.58;6.13;;;;;;;;;;5085979;28;20056;-64
2022/02/17 02:50:42;;;;;;;30.58;6.70;;;;;;;;;;5085888;28;20454;-64
2022/02/17 02:53:14;;;;;;;25.00;4.53;;;;;;;;;;5085462;28;20051;-65
2022/02/17 02:55:40;;;;;;;25.52;6.55;;;;;;;;;;5084708;28;20063;-65
2022/02/17 02:58:06;;;;;;;27.30;6.13;;;;;;;;;;5084403;28;20052;-65
2022/02/17 03:00:33;;;;;;;18.25;4.75;;;;;;;;;;5100843;28;20056;-64
2022/02/17 03:02:59;;;;;;;28.35;6.05;;;;;;;;;;5106031;28;20146;-65
2022/02/17 03:05:25;;;;;;;33.10;7.13;;;;;;;;;;5105962;28;20040;-64
2022/02/17 03:07:52;;;;;;;27.10;5.85;;;;;;;;;;5105122;28;20146;-64
2022/02/17 03:10:19;;;;;;;19.05;6.10;;;;;;;;;;5089613;28;20102;-64
2022/02/17 03:12:45;;;;;;;16.80;4.25;;;;;;;;;;5085545;28;20103;-64
2022/02/17 03:15:12;;;;;;;31.88;6.57;;;;;;;;;;5100611;28;20040;-64
2022/02/17 03:17:38;;;;;;;40.80;6.82;;;;;;;;;;5105577;28;20048;-64
2022/02/17 03:20:07;;;;;;;27.58;6.75;;;;;;;;;;5105599;28;20040;-65
2022/02/17 03:22:34;;;;;;;28.98;6.38;;;;;;;;;;5103764;28;20063;-65
2022/02/17 03:25:01;;;;;;;20.60;4.53;;;;;;;;;;5105959;28;20044;-65
2022/02/17 03:27:27;;;;;;;17.80;6.13;;;;;;;;;;5103863;28;20077;-63
2022/02/17 03:29:53;;;;;;;16.90;4.55;;;;;;;;;;5095736;28;20139;-63
2022/02/17 03:32:20;;;;;;;18.65;4.95;;;;;;;;;;5083999;28;20051;-64
2022/02/17 03:34:46;;;;;;;21.77;5.88;;;;;;;;;;5084024;28;20044;-64
2022/02/17 03:37:12;;;;;;;31.20;5.80;;;;;;;;;;5084853;28;20055;-64
2022/02/17 03:39:38;;;;;;;42.20;6.10;;;;;;;;;;5084974;28;20127;-64
2022/02/17 03:42:05;;;;;;;22.70;5.95;;;;;;;;;;5084870;28;20055;-64
2022/02/17 03:44:31;;;;;;;20.75;4.40;;;;;;;;;;5076340;28;20123;-64
2022/02/17 03:46:57;;;;;;;21.85;5.75;;;;;;;;;;5064413;28;20136;-63
2022/02/17 03:49:24;;;;;;;25.25;5.00;;;;;;;;;;5064774;28;20093;-64
2022/02/17 03:51:50;;;;;;;22.55;6.82;;;;;;;;;;5064395;28;20052;-63
2022/02/17 03:54:16;;;;;;;21.38;6.03;;;;;;;;;;5064626;28;20573;-64
2022/02/17 03:56:42;;;;;;;28.15;5.70;;;;;;;;;;5064622;28;20048;-63
2022/02/17 03:59:09;;;;;;;29.35;6.20;;;;;;;;;;5077617;28;20074;-64
2022/02/17 04:01:36;;;;;;;25.55;6.18;;;;;;;;;;5104751;28;20054;-64
2022/02/17 04:04:03;;;;;;;34.28;6.03;;;;;;;;;;5104826;28;20064;-64
2022/02/17 04:06:29;;;;;;;23.13;4.53;;;;;;;;;;5104439;28;20046;-64
2022/02/17 04:08:56;;;;;;;25.50;5.55;;;;;;;;;;5104226;28;20036;-64
2022/02/17 04:11:22;;;;;;;21.77;6.00;;;;;;;;;;5103034;28;20056;-64
2022/02/17 04:13:49;;;;;;;21.83;5.30;;;;;;;;;;5098871;28;20063;-64
2022/02/17 04:16:18;;;;;;;22.02;7.20;;;;;;;;;;5083982;28;20036;-63
2022/02/17 04:18:45;;;;;;;36.70;5.82;;;;;;;;;;5084193;28;20076;-64
2022/02/17 04:21:12;;;;;;;23.60;6.47;;;;;;;;;;5082766;28;20048;-64
2022/02/17 04:23:42;;;;;;;22.80;4.18;;;;;;;;;;5084557;28;20074;-64
2022/02/17 04:26:08;;;;;;;27.08;5.72;;;;;;;;;;5082948;28;20056;-63
2022/02/17 04:28:35;;;;;;;19.42;6.40;;;;;;;;;;5084108;28;20147;-64
2022/02/17 04:31:01;;;;;;;18.83;4.68;;;;;;;;;;5095049;28;20048;-64
2022/02/17 04:33:27;;;;;;;39.83;6.35;;;;;;;;;;5103347;28;20052;-63
2022/02/17 04:35:53;;;;;;;21.88;4.80;;;;;;;;;;5103083;28;20070;-63
2022/02/17 04:38:19;;;;;;;29.42;6.07;;;;;;;;;;5102959;28;20044;-64
2022/02/17 04:43:30;;;;;;;32.17;4.80;;;;;;;;;;5104272;28;20051;-65
2022/02/17 04:45:56;;;;;;;19.88;4.68;;;;;;;;;;5087829;28;20059;-65
2022/02/17 04:48:22;;;;;;;35.05;7.50;;;;;;;;;;5084078;28;20065;-65
2022/02/17 04:50:48;;;;;;;20.67;4.75;;;;;;;;;;5096211;28;20481;-64
2022/02/17 04:53:15;;;;;;;25.27;6.25;;;;;;;;;;5102824;28;20050;-64
2022/02/17 04:55:41;;;;;;;29.48;6.57;;;;;;;;;;5104484;28;20040;-63
2022/02/17 04:58:07;;;;;;;23.63;4.93;;;;;;;;;;5104171;28;20097;-65
2022/02/17 05:00:33;;;;;;;24.85;5.75;;;;;;;;;;5101816;28;20032;-64
2022/02/17 05:02:59;;;;;;;24.13;5.32;;;;;;;;;;5083845;28;20082;-65
2022/02/17 05:05:25;;;;;;;31.42;6.13;;;;;;;;;;5082972;28;20044;-64
2022/02/17 05:07:51;;;;;;;33.15;6.15;;;;;;;;;;5081899;28;20059;-65
2022/02/17 05:10:17;;;;;;;23.25;6.30;;;;;;;;;;5082542;28;20045;-64
2022/02/17 05:12:43;;;;;;;25.60;4.82;;;;;;;;;;5083967;28;20044;-64
2022/02/17 05:15:09;;;;;;;34.60;7.50;;;;;;;;;;5083498;28;20048;-64
2022/02/17 05:17:36;;;;;;;30.90;6.88;;;;;;;;;;5082876;28;20060;-63
2022/02/17 05:20:02;;;;;;;28.00;6.22;;;;;;;;;;5092761;28;20068;-63
2022/02/17 05:22:28;;;;;;;26.15;5.97;;;;;;;;;;5105930;28;20044;-64
2022/02/17 05:24:54;;;;;;;39.33;8.07;;;;;;;;;;5106733;28;20048;-64
2022/02/17 05:27:20;;;;;;;25.45;5.63;;;;;;;;;;5107622;28;20052;-64
2022/02/17 05:29:46;;;;;;;23.92;6.13;;;;;;;;;;5106192;28;20040;-64
2022/02/17 05:32:12;;;;;;;31.95;6.30;;;;;;;;;;5107864;28;20075;-64
2022/02/17 05:34:38;;;;;;;34.78;7.18;;;;;;;;;;5099267;28;20500;-63
2022/02/17 05:37:05;;;;;;;28.55;6.32;;;;;;;;;;5085426;28;20051;-64
2022/02/17 05:39:31;;;;;;;32.67;6.32;;;;;;;;;;5087441;28;20048;-63
2022/02/17 05:41:57;;;;;;;20.70;5.07;;;;;;;;;;5085915;28;20148;-64
2022/02/17 05:44:23;;;;;;;21.77;5.53;;;;;;;;;;5085662;28;20052;-64
2022/02/17 05:46:50;;;;;;;36.78;5.85;;;;;;;;;;5087111;28;20120;-64
2022/02/17 05:49:16;;;;;;;26.40;5.05;;;;;;;;;;5093821;28;20040;-64
2022/02/17 05:51:42;;;;;;;33.92;7.00;;;;;;;;;;5105303;28;20043;-64
2022/02/17 05:54:08;;;;;;;23.65;5.20;;;;;;;;;;5107220;28;20519;-63
2022/02/17 05:56:34;;;;;;;27.92;5.28;;;;;;;;;;5107199;28;20048;-64
2022/02/17 05:59:00;;;;;;;30.42;6.60;;;;;;;;;;5106088;28;20103;-63
2022/02/17 06:01:27;;;;;;;31.58;6.60;;;;;;;;;;5105992;28;20496;-64
2022/02/17 06:03:53;;;;;;;24.27;6.15;;;;;;;;;;5101047;28;20115;-63
2022/02/17 06:06:19;;;;;;;35.33;5.57;;;;;;;;;;5084829;28;20112;-64
2022/02/17 06:08:45;;;;;;;19.70;5.03;;;;;;;;;;5086724;28;20393;-63
2022/02/17 06:11:11;;;;;;;23.95;5.22;;;;;;;;;;5085270;28;20084;-64
2022/02/17 06:13:37;;;;;;;26.85;5.20;;;;;;;;;;5086794;28;20040;-63
2022/02/17 06:16:03;;;;;;;31.40;5.10;;;;;;;;;;5086389;28;20060;-63
2022/02/17 06:18:29;;;;;;;23.55;5.88;;;;;;;;;;5085399;28;20059;-63
2022/02/17 06:20:55;;;;;;;21.83;4.82;;;;;;;;;;5088103;28;20040;-63
2022/02/17 06:23:21;;;;;;;27.40;5.80;;;;;;;;;;5106625;28;20048;-63
2022/02/17 06:25:48;;;;;;;24.83;5.32;;;;;;;;;;5105265;28;20119;-63
2022/02/17 06:28:14;;;;;;;25.00;4.57;;;;;;;;;;5099881;28;20104;-63
2022/02/17 06:30:44;;;;;;;27.85;5.60;;;;;;;;;;5085577;28;20082;-63
2022/02/17 06:33:11;;;;;;;24.63;4.80;;;;;;;;;;5081537;28;20059;-63
2022/02/17 06:35:38;;;;;;;17.08;4.72;;;;;;;;;;5081607;28;20048;-63
2022/02/17 06:38:05;;;;;;;31.53;5.53;;;;;;;;;;5081188;28;20077;-63
2022/02/17 06:40:31;;;;;;;29.13;4.95;;;;;;;;;;5098528;28;20540;-64
2022/02/17 06:43:02;;;;;;;27.90;5.55;;;;;;;;;;5093665;28;20044;-64
2022/02/17 06:45:28;;;;;;;21.55;5.63;;;;;;;;;;5088801;28;20055;-63
2022/02/17 06:47:55;;;;;;;28.33;5.55;;;;;;;;;;5086717;28;20193;-63
2022/02/17 06:50:21;;;;;;;26.67;4.57;;;;;;;;;;5080949;28;20052;-64
2022/02/17 06:52:47;;;;;;;23.13;4.28;;;;;;;;;;5097027;28;20052;-63
2022/02/17 06:55:14;;;;;;;28.98;5.32;;;;;;;;;;5105907;28;20099;-63
2022/02/17 06:57:40;;;;;;;21.42;5.38;;;;;;;;;;5092437;28;20044;-63
2022/02/17 07:00:06;;;;;;;23.70;4.38;;;;;;;;;;5078091;28;20051;-63
2022/02/17 07:02:33;;;;;;;27.15;3.75;;;;;;;;;;5084743;28;20057;-63
2022/02/17 07:05:01;;;;;;;18.85;5.05;;;;;;;;;;5075194;28;20079;-63
2022/02/17 07:07:27;;;;;;;25.55;5.18;;;;;;;;;;5089930;28;20078;-63
2022/02/17 07:09:53;;;;;;;21.90;4.88;;;;;;;;;;5084361;28;20053;-63
2022/02/17 07:12:19;;;;;;;26.90;4.97;;;;;;;;;;5088044;28;20112;-64
2022/02/17 07:14:46;;;;;;;20.98;4.82;;;;;;;;;;5083828;28;20492;-63
2022/02/17 07:17:12;;;;;;;20.65;4.15;;;;;;;;;;5090210;28;20040;-63
2022/02/17 07:19:38;;;;;;;35.45;6.38;;;;;;;;;;5088822;28;20072;-63
2022/02/17 07:22:04;;;;;;;20.95;4.32;;;;;;;;;;5081406;28;20045;-63
2022/02/17 07:24:31;;;;;;;22.92;5.63;;;;;;;;;;5073535;28;20052;-63
2022/02/17 07:26:57;;;;;;;26.52;5.05;;;;;;;;;;5093564;28;20067;-63
2022/02/17 07:29:23;;;;;;;19.23;4.00;;;;;;;;;;5088104;28;20037;-63
2022/02/17 07:31:52;;;;;;;31.98;4.95;;;;;;;;;;5089590;28;20052;-62
2022/02/17 07:34:19;;;;;;;25.80;4.40;;;;;;;;;;5080821;28;20040;-64
2022/02/17 07:36:45;;;;;;;28.67;6.00;;;;;;;;;;5130973;27;20273;-68
2022/02/17 07:39:11;;;;;;;27.25;4.85;;;;;;;;;;5082931;28;20748;-64
2022/02/17 07:41:37;;;;;;;15.23;4.80;;;;;;;;;;5083726;28;20328;-67
2022/02/17 07:44:04;;;;;;;20.50;4.53;;;;;;;;;;5084817;28;20534;-72
2022/02/17 07:46:31;;;;;;;17.43;4.53;;;;;;;;;;5084496;28;20059;-73
2022/02/17 07:48:57;;;;;;;25.70;4.55;;;;;;;;;;5084777;28;20096;-71
2022/02/17 07:51:23;;;;;;;21.20;4.10;;;;;;;;;;5094750;28;20104;-70
2022/02/17 07:53:49;;;;;;;13.90;3.60;;;;;;;;;;5104878;28;20056;-75
2022/02/17 07:56:16;;;;;;;25.58;4.22;;;;;;;;;;5090879;28;20088;-73
2022/02/17 07:58:43;;;;;;;17.83;4.20;;;;;;;;;;5065384;28;20400;-74
2022/02/17 08:01:10;;;;;;;28.05;4.15;;;;;;;;;;5080753;28;20048;-65
2022/02/17 08:03:36;;;;;;;27.17;4.00;;;;;;;;;;5070772;28;20037;-66
2022/02/17 08:06:03;;;;;;;19.15;5.45;;;;;;;;;;5064794;28;20052;-67
2022/02/17 08:08:29;;;;;;;24.08;4.63;;;;;;;;;;5084523;28;20056;-66
2022/02/17 08:10:55;;;;;;;22.75;5.35;;;;;;;;;;5084373;28;20110;-69
2022/02/17 08:13:21;;;;;;;26.70;4.97;;;;;;;;;;5092864;28;20051;-68
2022/02/17 08:15:47;;;;;;;16.38;4.70;;;;;;;;;;5084226;28;20059;-71
2022/02/17 08:18:14;;;;;;;19.02;4.13;;;;;;;;;;5100699;28;20042;-71
2022/02/17 08:20:40;;;;;;;18.35;3.70;;;;;;;;;;5104623;28;20073;-71
2022/02/17 08:23:06;;;;;;;20.65;3.40;;;;;;;;;;5102209;28;20051;-71
2022/02/17 08:25:33;;;;;;;15.73;4.05;;;;;;;;;;5103651;28;20055;-66
2022/02/17 08:27:59;;;;;;;17.55;4.57;;;;;;;;;;5090481;28;20052;-65
2022/02/17 08:30:25;;;;;;;16.52;3.75;;;;;;;;;;5103029;28;20131;-64
2022/02/17 08:32:56;;;;;;;20.40;4.22;;;;;;;;;;5067398;28;20045;-68
2022/02/17 08:35:22;;;;;;;20.60;3.72;;;;;;;;;;5089783;28;21201;-67
2022/02/17 08:37:49;;;;;;;26.10;4.50;;;;;;;;;;5080445;28;20093;-66
2022/02/17 08:40:15;;;;;;;21.50;4.50;;;;;;;;;;5082546;28;20103;-68
2022/02/17 08:42:42;;;;;;;17.83;3.22;;;;;;;;;;5063778;28;20048;-66
2022/02/17 08:45:09;;;;;;;22.08;4.78;;;;;;;;;;5078935;28;20510;-66
2022/02/17 08:47:37;;;;;;;22.98;4.00;;;;;;;;;;5064925;28;20062;-67
2022/02/17 08:50:03;;;;;;;;;;;;;;;;;;5082927;28;20036;-66
2022/02/17 08:52:29;;;;;;;17.92;4.45;;;;;;;;;;5067422;28;19916;-68
2022/02/17 08:54:56;;;;;;;32.42;4.18;;;;;;;;;;5072862;28;20168;-70
2022/02/17 08:57:22;;;;;;;22.67;5.68;;;;;;;;;;5087549;28;20040;-69
2022/02/17 08:59:48;;;;;;;19.52;4.70;;;;;;;;;;5084915;28;20043;-69
2022/02/17 09:02:14;;;;;;;21.40;5.22;;;;;;;;;;5069848;28;20048;-65
2022/02/17 09:04:40;;;;;;;24.00;5.18;;;;;;;;;;5080920;28;20088;-69
2022/02/17 09:07:07;;;;;;;18.55;4.65;;;;;;;;;;5102502;28;20048;-68
2022/02/17 09:09:33;;;;;;;25.70;4.70;;;;;;;;;;5085639;28;20045;-67
2022/02/17 09:11:59;;;;;;;22.40;4.93;;;;;;;;;;5086752;28;20108;-71
2022/02/17 09:14:25;;;;;;;21.75;4.38;;;;;;;;;;5081236;28;20056;-67
2022/02/17 09:16:53;;;;;;;22.67;4.63;;;;;;;;;;5083341;28;20056;-67
2022/02/17 09:19:19;;;;;;;27.88;4.78;;;;;;;;;;5086437;28;20285;-70
2022/02/17 09:21:45;;;;;;;29.95;5.00;;;;;;;;;;5085384;28;20094;-69
2022/02/17 09:24:11;;;;;;;20.67;4.68;;;;;;;;;;5084186;28;20092;-74
2022/02/17 09:26:38;;;;;;;18.23;3.80;;;;;;;;;;5086244;28;20060;-69
2022/02/17 09:29:04;;;;;;;20.60;4.78;;;;;;;;;;5072399;28;20524;-71
2022/02/17 09:31:31;;;;;;;19.37;4.47;;;;;;;;;;5075230;28;20051;-69
2022/02/17 09:33:57;;;;;;;33.53;5.47;;;;;;;;;;5087994;28;20544;-64
2022/02/17 09:36:27;;;;;;;22.30;5.03;;;;;;;;;;5067832;28;20040;-64
2022/02/17 09:38:54;;;;;;;16.80;4.75;;;;;;;;;;5071153;28;20040;-64
2022/02/17 09:41:21;;;;;;;20.42;3.72;;;;;;;;;;5080770;28;20040;-63
2022/02/17 09:43:49;;;;;;;23.23;4.78;;;;;;;;;;5079606;28;20187;-64
2022/02/17 09:46:21;;;;;;;20.08;4.75;;;;;;;;;;5086569;28;20108;-63
2022/02/17 09:49:01;;;;;;;24.08;5.82;;;;;;;;;;5077914;28;20072;-64
2022/02/17 09:51:31;;;;;;;21.40;5.50;;;;;;;;;;5086352;28;20043;-63
2022/02/17 09:53:57;;;;;;;29.38;6.60;;;;;;;;;;5086445;28;20072;-63
2022/02/17 09:56:23;;;;;;;25.38;4.30;;;;;;;;;;5086882;28;20036;-63
2022/02/17 09:58:53;;;;;;;30.83;5.22;;;;;;;;;;5085265;28;20040;-63
2022/02/17 10:01:21;;;;;;;19.90;4.38;;;;;;;;;;5084271;28;20090;-63
2022/02/17 10:03:47;;;;;;;24.27;5.35;;;;;;;;;;5075426;28;20048;-64
2022/02/17 10:06:15;;;;;;;26.13;4.32;;;;;;;;;;5083879;28;20040;-63
2022/02/17 10:08:41;;;;;;;20.55;5.95;;;;;;;;;;5083070;28;20046;-62
2022/02/17 10:11:08;;;;;;;18.58;5.40;;;;;;;;;;5076798;28;20036;-62
2022/02/17 10:13:35;;;;;;;22.03;3.77;;;;;;;;;;5073700;28;20053;-62
2022/02/17 10:16:02;;;;;;;30.33;4.40;;;;;;;;;;5074602;28;20295;-62
2022/02/17 10:18:30;;;;;;;20.60;5.30;;;;;;;;;;5079064;28;20229;-62
2022/02/17 10:21:08;;;;;;;23.25;4.18;;;;;;;;;;5081525;28;20051;-62
2022/02/17 10:23:44;;;;;;;20.58;4.05;;;;;;;;;;5080621;28;20599;-62
2022/02/17 10:26:12;;;;;;;19.05;4.40;;;;;;;;;;5083833;28;20040;-62
2022/02/17 10:28:38;;;;;;;;;;;;;;;;;;5084401;28;20104;-62
2022/02/17 10:31:05;;;;;;;26.67;4.95;;;;;;;;;;5082947;28;20383;-62
2022/02/17 10:33:38;;;;;;;25.93;4.57;;;;;;;;;;5085679;28;20033;-63
2022/02/17 10:36:04;;;;;;;21.77;5.43;;;;;;;;;;5075321;28;20103;-62
2022/02/17 10:38:30;;;;;;;26.77;5.63;;;;;;;;;;5085651;28;20047;-62
2022/02/17 10:40:56;;;;;;;20.77;3.65;;;;;;;;;;5084741;28;20033;-62
2022/02/17 10:43:26;;;;;;;24.55;4.80;;;;;;;;;;5084966;28;20044;-62
2022/02/17 10:45:53;;;;;;;24.35;4.70;;;;;;;;;;5082669;28;20395;-62
2022/02/17 10:48:19;;;;;;;25.50;5.93;;;;;;;;;;5100532;28;20056;-62
2022/02/17 10:51:05;;;;;;;25.75;4.90;;;;;;;;;;5080468;28;20436;-62
2022/02/17 10:53:32;;;;;;;22.92;3.88;;;;;;;;;;5068710;28;20128;-62
2022/02/17 10:56:00;;;;;;;24.35;5.82;;;;;;;;;;5069278;28;20059;-62
2022/02/17 10:58:28;;;;;;;26.77;4.75;;;;;;;;;;5072158;28;20049;-62
2022/02/17 11:00:56;;;;;;;25.25;4.78;;;;;;;;;;5071133;28;20049;-62
2022/02/17 11:03:22;;;;;;;19.85;4.00;;;;;;;;;;5083925;28;20044;-62
2022/02/17 11:05:49;;;;;;;25.27;4.68;;;;;;;;;;5079374;28;20041;-62
2022/02/17 11:08:15;;;;;;;20.88;3.95;;;;;;;;;;5071605;28;20044;-63
2022/02/17 11:10:41;;;;;;;23.08;3.90;;;;;;;;;;5075620;28;20049;-62
2022/02/17 11:13:10;;;;;;;24.73;6.18;;;;;;;;;;5069890;28;20497;-63
2022/02/17 11:15:38;;;;;;;21.02;4.38;;;;;;;;;;5099761;28;20447;-63
2022/02/17 11:18:05;;;;;;;17.35;3.72;;;;;;;;;;5072191;28;20055;-62
2022/02/17 11:20:31;;;;;;;23.95;3.70;;;;;;;;;;5086691;28;20040;-62
2022/02/17 11:22:57;;;;;;;26.25;4.40;;;;;;;;;;5080776;28;20039;-62
2022/02/17 11:25:36;;;;;;;21.50;3.85;;;;;;;;;;5079783;28;20067;-62
2022/02/17 11:28:07;;;;;;;14.20;3.92;;;;;;;;;;5083083;28;20404;-62
2022/02/17 11:30:34;;;;;;;26.10;4.38;;;;;;;;;;5069642;28;20156;-62
2022/02/17 11:33:23;;;;;;;18.70;4.47;;;;;;;;;;5066823;28;20041;-62
2022/02/17 11:35:50;;;;;;;16.83;3.90;;;;;;;;;;5066988;28;20053;-62
2022/02/17 11:38:28;;;;;;;16.50;3.88;;;;;;;;;;5069597;28;20040;-62
2022/02/17 11:41:10;;;;;;;15.88;3.97;;;;;;;;;;5066157;28;20044;-62
2022/02/17 11:43:37;;;;;;;13.98;3.90;;;;;;;;;;5067102;28;20049;-63
2022/02/17 11:46:04;;;;;;;20.80;4.25;;;;;;;;;;5068749;28;20109;-61
2022/02/17 11:48:34;;;;;;;19.38;3.10;;;;;;;;;;5070363;28;20053;-61
2022/02/17 11:51:10;;;;;;;14.35;3.38;;;;;;;;;;5067484;28;20053;-61
2022/02/17 11:53:37;;;;;;;27.63;4.18;;;;;;;;;;5066107;28;20044;-61
2022/02/17 11:56:06;;;;;;;17.23;4.07;;;;;;;;;;5067903;28;20045;-61
2022/02/17 11:58:43;;;;;;;10.93;3.22;;;;;;;;;;5074709;28;20040;-61
2022/02/17 12:01:25;;;;;;;18.90;3.85;;;;;;;;;;5077170;28;20049;-61
2022/02/17 12:03:57;;;;;;;14.57;3.47;;;;;;;;;;5087791;28;20044;-61
2022/02/17 12:06:45;;;;;;;16.65;3.42;;;;;;;;;;5077851;28;20052;-60
2022/02/17 12:09:32;;;;;;;23.55;3.13;;;;;;;;;;5092609;28;20124;-61
2022/02/17 12:12:17;;;;;;;21.73;5.20;;;;;;;;;;5090535;28;20056;-61
2022/02/17 12:14:47;;;;;;;15.82;3.13;;;;;;;;;;5069163;28;20056;-61
2022/02/17 12:17:14;;;;;;;21.20;3.25;;;;;;;;;;5098138;28;20104;-61
2022/02/17 12:19:40;;;;;;;17.45;3.80;;;;;;;;;;5083055;28;20179;-61
2022/02/17 12:22:11;;;;;;;26.92;4.90;;;;;;;;;;5081425;28;20048;-61
2022/02/17 12:24:42;;;;;;;17.00;3.92;;;;;;;;;;5077370;28;20084;-60
2022/02/17 12:27:10;;;;;;;16.08;3.80;;;;;;;;;;5079931;28;20565;-61
2022/02/17 12:29:37;;;;;;;15.90;4.38;;;;;;;;;;5081391;28;20059;-61
2022/02/17 12:32:05;;;;;;;18.58;3.53;;;;;;;;;;5090364;28;20044;-61
2022/02/17 12:34:31;;;;;;;15.50;3.50;;;;;;;;;;5077075;28;20045;-61
2022/02/17 12:36:57;;;;;;;18.90;3.97;;;;;;;;;;5097075;28;20129;-61
2022/02/17 12:39:30;;;;;;;16.75;2.72;;;;;;;;;;5079211;28;20037;-61
2022/02/17 12:41:59;;;;;;;22.15;3.67;;;;;;;;;;5069367;28;20033;-61
2022/02/17 12:44:30;;;;;;;16.08;3.70;;;;;;;;;;5079179;28;20149;-61
2022/02/17 12:47:00;;;;;;;19.77;3.63;;;;;;;;;;5080205;28;20412;-61
2022/02/17 12:49:28;;;;;;;15.88;3.33;;;;;;;;;;5076972;28;20053;-61
2022/02/17 12:52:05;;;;;;;11.30;3.08;;;;;;;;;;5079617;28;20075;-61
2022/02/17 12:54:31;;;;;;;15.85;2.90;;;;;;;;;;5086080;28;20032;-61
2022/02/17 12:57:04;;;;;;;9.23;2.40;;;;;;;;;;5087498;28;20045;-61
2022/02/17 12:59:31;;;;;;;9.02;2.80;;;;;;;;;;5069708;28;20040;-61
2022/02/17 13:01:58;;;;;;;11.50;3.15;;;;;;;;;;5086596;28;20080;-61
2022/02/17 13:04:24;;;;;;;18.35;3.35;;;;;;;;;;5080911;28;20033;-61
2022/02/17 13:06:53;;;;;;;19.48;3.67;;;;;;;;;;5067791;28;20055;-61
2022/02/17 13:09:29;;;;;;;13.57;2.78;;;;;;;;;;5076275;28;20072;-60
2022/02/17 13:11:56;;;;;;;16.35;3.63;;;;;;;;;;5082982;28;20708;-60
2022/02/17 13:14:23;;;;;;;17.30;3.28;;;;;;;;;;5081196;28;20028;-62
2022/02/17 13:16:52;;;;;;;15.52;3.35;;;;;;;;;;5073519;28;20051;-61
2022/02/17 13:19:38;;;;;;;14.52;4.38;;;;;;;;;;5084415;28;20040;-60
2022/02/17 13:22:08;;;;;;;14.27;3.53;;;;;;;;;;5070423;28;20070;-62
2022/02/17 13:24:34;;;;;;;11.55;2.97;;;;;;;;;;5081958;28;20076;-62
2022/02/17 13:27:10;;;;;;;14.20;3.70;;;;;;;;;;5078244;28;20629;-61
2022/02/17 13:29:55;;;;;;;12.77;3.90;;;;;;;;;;5079141;28;20041;-62
2022/02/17 13:32:22;;;;;;;15.00;3.33;;;;;;;;;;5075953;28;20041;-61
2022/02/17 13:34:48;;;;;;;9.40;3.30;;;;;;;;;;5088989;28;20126;-61
2022/02/17 13:37:16;;;;;;;13.32;3.25;;;;;;;;;;5091133;28;20067;-61
2022/02/17 13:39:42;;;;;;;21.95;3.38;;;;;;;;;;5080785;28;20495;-61
2022/02/17 13:42:09;;;;;;;11.68;4.20;;;;;;;;;;5072418;28;20037;-60
2022/02/17 13:44:37;;;;;;;9.68;2.95;;;;;;;;;;5073643;28;20044;-61
2022/02/17 13:47:04;;;;;;;16.65;3.65;;;;;;;;;;5081436;28;20060;-61
2022/02/17 13:49:30;;;;;;;14.02;3.20;;;;;;;;;;5079846;28;20496;-61
2022/02/17 13:51:57;;;;;;;15.55;3.25;;;;;;;;;;5093214;28;20044;-61
2022/02/17 13:54:23;;;;;;;17.30;3.30;;;;;;;;;;5082656;28;20053;-60
2022/02/17 13:56:49;;;;;;;24.27;3.38;;;;;;;;;;5082351;28;20056;-62
2022/02/17 13:59:15;;;;;;;16.35;3.55;;;;;;;;;;5077454;28;20049;-61
2022/02/17 14:01:48;;;;;;;11.73;3.03;;;;;;;;;;5077578;28;20063;-61
2022/02/17 14:04:31;;;;;;;14.70;3.40;;;;;;;;;;5082018;28;20045;-61
2022/02/17 14:06:58;;;;;;;12.98;3.45;;;;;;;;;;5091928;28;20063;-61
2022/02/17 14:09:24;;;;;;;15.10;2.65;;;;;;;;;;5079416;28;20049;-61
2022/02/17 14:11:50;;;;;;;14.85;3.55;;;;;;;;;;5070469;28;20040;-61
2022/02/17 14:14:17;;;;;;;13.75;3.35;;;;;;;;;;5103791;28;20139;-60
2022/02/17 14:16:47;;;;;;;18.17;3.17;;;;;;;;;;5094942;28;20044;-60
2022/02/17 14:19:13;;;;;;;14.30;3.47;;;;;;;;;;5072388;28;20048;-61
2022/02/17 14:21:39;;;;;;;14.88;3.63;;;;;;;;;;5075643;28;20177;-61
2022/02/17 14:24:06;;;;;;;15.38;4.47;;;;;;;;;;5079287;28;20504;-60
2022/02/17 14:26:33;;;;;;;14.43;3.70;;;;;;;;;;5078950;28;20078;-60
2022/02/17 14:28:59;;;;;;;20.65;4.50;;;;;;;;;;5072527;28;20102;-61
2022/02/17 14:31:25;;;;;;;16.70;3.13;;;;;;;;;;5086522;28;20045;-61
2022/02/17 14:33:51;;;;;;;16.58;3.40;;;;;;;;;;5081078;28;20044;-61
2022/02/17 14:36:17;;;;;;;14.75;3.25;;;;;;;;;;5074354;28;20085;-61